Terminal Aerodrome Forecast
Issued by NWS

Home | Current Version | Previous Version | Text Only | Print | Product List | Glossary On
Versions: 1 2 3 4 5 6 7 8 9 10 11 12 13 14 15 16 17 18 19 20
000
FTUS43 KICT 310522
TAFHUT
TAF
KHUT 310522Z 3106/0106 13005KT P6SM SKC
     FM310900 14005KT 4SM BR SCT011
      TEMPO 3110/3113 2SM BR
     FM311500 17012KT P6SM SKC=

USA.gov is the U.S. government's official web portal to all federal, state and local government web resources and services.